sensor_id;sensor_type;location;lat;lon;timestamp;P1;durP1;ratioP1;P2;durP2;ratioP2
76852;SDS011;65825;52.232;10.566;2022-12-11T00:01:29;15.57;;;8.13;;
76852;SDS011;65825;52.232;10.566;2022-12-11T00:03:54;18.30;;;8.73;;
76852;SDS011;65825;52.232;10.566;2022-12-11T00:06:21;18.93;;;9.03;;
76852;SDS011;65825;52.232;10.566;2022-12-11T00:08:46;18.10;;;8.77;;
76852;SDS011;65825;52.232;10.566;2022-12-11T00:11:13;16.20;;;8.17;;
76852;SDS011;65825;52.232;10.566;2022-12-11T00:13:38;18.25;;;8.27;;
76852;SDS011;65825;52.232;10.566;2022-12-11T00:16:03;14.37;;;6.37;;
76852;SDS011;65825;52.232;10.566;2022-12-11T00:18:29;14.80;;;6.68;;
76852;SDS011;65825;52.232;10.566;2022-12-11T00:20:54;17.43;;;7.50;;
76852;SDS011;65825;52.232;10.566;2022-12-11T00:23:19;14.60;;;7.23;;
76852;SDS011;65825;52.232;10.566;2022-12-11T00:25:45;17.77;;;8.15;;
76852;SDS011;65825;52.232;10.566;2022-12-11T00:28:11;17.63;;;8.38;;
76852;SDS011;65825;52.232;10.566;2022-12-11T00:30:39;20.60;;;8.50;;
76852;SDS011;65825;52.232;10.566;2022-12-11T00:33:05;16.45;;;7.07;;
76852;SDS011;65825;52.232;10.566;2022-12-11T00:35:31;16.40;;;7.50;;
76852;SDS011;65825;52.232;10.566;2022-12-11T00:37:56;17.92;;;7.85;;
76852;SDS011;65825;52.232;10.566;2022-12-11T00:40:21;17.17;;;7.20;;
76852;SDS011;65825;52.232;10.566;2022-12-11T00:42:46;15.47;;;6.77;;
76852;SDS011;65825;52.232;10.566;2022-12-11T00:45:11;18.33;;;8.23;;
76852;SDS011;65825;52.232;10.566;2022-12-11T00:47:37;17.63;;;8.53;;
76852;SDS011;65825;52.232;10.566;2022-12-11T00:50:02;17.53;;;8.47;;
76852;SDS011;65825;52.232;10.566;2022-12-11T00:52:27;17.48;;;8.27;;
76852;SDS011;65825;52.232;10.566;2022-12-11T00:54:52;19.67;;;8.87;;
76852;SDS011;65825;52.232;10.566;2022-12-11T00:57:17;17.30;;;8.37;;
76852;SDS011;65825;52.232;10.566;2022-12-11T00:59:43;17.53;;;7.83;;
76852;SDS011;65825;52.232;10.566;2022-12-11T01:02:08;15.67;;;7.20;;
76852;SDS011;65825;52.232;10.566;2022-12-11T01:04:34;17.97;;;8.20;;
76852;SDS011;65825;52.232;10.566;2022-12-11T01:06:59;14.50;;;7.10;;
76852;SDS011;65825;52.232;10.566;2022-12-11T01:09:24;13.53;;;6.60;;
76852;SDS011;65825;52.232;10.566;2022-12-11T01:12:08;14.65;;;7.00;;
76852;SDS011;65825;52.232;10.566;2022-12-11T01:14:33;14.10;;;6.87;;
76852;SDS011;65825;52.232;10.566;2022-12-11T01:16:58;16.33;;;7.57;;
76852;SDS011;65825;52.232;10.566;2022-12-11T01:19:24;13.87;;;6.87;;
76852;SDS011;65825;52.232;10.566;2022-12-11T01:21:49;13.33;;;6.67;;
76852;SDS011;65825;52.232;10.566;2022-12-11T01:24:14;15.30;;;6.53;;
76852;SDS011;65825;52.232;10.566;2022-12-11T01:26:39;13.70;;;6.27;;
76852;SDS011;65825;52.232;10.566;2022-12-11T01:29:04;15.67;;;6.33;;
76852;SDS011;65825;52.232;10.566;2022-12-11T01:31:30;11.33;;;6.30;;
76852;SDS011;65825;52.232;10.566;2022-12-11T01:33:55;13.25;;;6.80;;
76852;SDS011;65825;52.232;10.566;2022-12-11T01:36:20;14.37;;;6.30;;
76852;SDS011;65825;52.232;10.566;2022-12-11T01:38:46;15.30;;;6.78;;
76852;SDS011;65825;52.232;10.566;2022-12-11T01:41:11;15.30;;;7.43;;
76852;SDS011;65825;52.232;10.566;2022-12-11T01:46:20;12.20;;;6.55;;
76852;SDS011;65825;52.232;10.566;2022-12-11T01:48:45;14.13;;;7.27;;
76852;SDS011;65825;52.232;10.566;2022-12-11T01:51:10;15.67;;;6.97;;
76852;SDS011;65825;52.232;10.566;2022-12-11T01:53:38;13.40;;;7.13;;
76852;SDS011;65825;52.232;10.566;2022-12-11T01:56:04;11.45;;;6.25;;
76852;SDS011;65825;52.232;10.566;2022-12-11T01:58:31;12.30;;;6.43;;
76852;SDS011;65825;52.232;10.566;2022-12-11T02:00:57;12.80;;;6.35;;
76852;SDS011;65825;52.232;10.566;2022-12-11T02:03:22;12.77;;;6.25;;
76852;SDS011;65825;52.232;10.566;2022-12-11T02:05:47;13.90;;;6.43;;
76852;SDS011;65825;52.232;10.566;2022-12-11T02:08:13;12.57;;;6.37;;
76852;SDS011;65825;52.232;10.566;2022-12-11T02:10:47;11.97;;;5.83;;
76852;SDS011;65825;52.232;10.566;2022-12-11T02:13:16;14.02;;;6.25;;
76852;SDS011;65825;52.232;10.566;2022-12-11T02:15:51;11.77;;;5.90;;
76852;SDS011;65825;52.232;10.566;2022-12-11T02:18:30;11.10;;;6.15;;
76852;SDS011;65825;52.232;10.566;2022-12-11T02:21:01;14.98;;;6.22;;
76852;SDS011;65825;52.232;10.566;2022-12-11T02:23:33;17.88;;;7.80;;
76852;SDS011;65825;52.232;10.566;2022-12-11T02:29:00;16.45;;;7.80;;
76852;SDS011;65825;52.232;10.566;2022-12-11T02:31:27;15.52;;;7.00;;
76852;SDS011;65825;52.232;10.566;2022-12-11T02:34:07;14.77;;;7.32;;
76852;SDS011;65825;52.232;10.566;2022-12-11T02:36:34;15.85;;;7.68;;
76852;SDS011;65825;52.232;10.566;2022-12-11T02:39:02;17.23;;;7.93;;
76852;SDS011;65825;52.232;10.566;2022-12-11T02:41:28;14.88;;;7.45;;
76852;SDS011;65825;52.232;10.566;2022-12-11T02:43:53;16.40;;;8.25;;
76852;SDS011;65825;52.232;10.566;2022-12-11T02:46:20;15.05;;;8.43;;
76852;SDS011;65825;52.232;10.566;2022-12-11T02:48:46;17.33;;;7.40;;
76852;SDS011;65825;52.232;10.566;2022-12-11T02:51:12;14.80;;;7.47;;
76852;SDS011;65825;52.232;10.566;2022-12-11T02:53:38;16.00;;;7.97;;
76852;SDS011;65825;52.232;10.566;2022-12-11T02:56:07;14.63;;;6.90;;
76852;SDS011;65825;52.232;10.566;2022-12-11T02:58:34;15.55;;;7.68;;
76852;SDS011;65825;52.232;10.566;2022-12-11T03:01:02;13.55;;;6.57;;
76852;SDS011;65825;52.232;10.566;2022-12-11T03:03:27;13.82;;;6.53;;
76852;SDS011;65825;52.232;10.566;2022-12-11T03:05:53;12.50;;;6.43;;
76852;SDS011;65825;52.232;10.566;2022-12-11T03:08:19;15.15;;;7.38;;
76852;SDS011;65825;52.232;10.566;2022-12-11T03:10:44;14.73;;;7.80;;
76852;SDS011;65825;52.232;10.566;2022-12-11T03:13:09;13.40;;;6.82;;
76852;SDS011;65825;52.232;10.566;2022-12-11T03:15:40;12.73;;;6.50;;
76852;SDS011;65825;52.232;10.566;2022-12-11T03:20:37;14.18;;;7.22;;
76852;SDS011;65825;52.232;10.566;2022-12-11T03:25:41;13.00;;;6.57;;
76852;SDS011;65825;52.232;10.566;2022-12-11T03:30:36;14.85;;;7.07;;
76852;SDS011;65825;52.232;10.566;2022-12-11T03:33:03;15.38;;;6.88;;
76852;SDS011;65825;52.232;10.566;2022-12-11T03:35:38;14.82;;;6.95;;
76852;SDS011;65825;52.232;10.566;2022-12-11T03:38:05;17.98;;;7.85;;
76852;SDS011;65825;52.232;10.566;2022-12-11T03:40:31;12.73;;;6.60;;
76852;SDS011;65825;52.232;10.566;2022-12-11T03:42:58;11.98;;;6.40;;
76852;SDS011;65825;52.232;10.566;2022-12-11T03:45:24;12.88;;;7.03;;
76852;SDS011;65825;52.232;10.566;2022-12-11T03:47:50;15.30;;;7.82;;
76852;SDS011;65825;52.232;10.566;2022-12-11T03:50:16;14.68;;;7.97;;
76852;SDS011;65825;52.232;10.566;2022-12-11T03:52:43;14.55;;;6.85;;
76852;SDS011;65825;52.232;10.566;2022-12-11T03:55:09;16.98;;;7.68;;
76852;SDS011;65825;52.232;10.566;2022-12-11T03:57:36;14.85;;;7.68;;
76852;SDS011;65825;52.232;10.566;2022-12-11T04:00:05;13.75;;;7.25;;
76852;SDS011;65825;52.232;10.566;2022-12-11T04:02:30;16.75;;;8.00;;
76852;SDS011;65825;52.232;10.566;2022-12-11T04:04:55;16.07;;;7.40;;
76852;SDS011;65825;52.232;10.566;2022-12-11T04:07:21;14.50;;;7.43;;
76852;SDS011;65825;52.232;10.566;2022-12-11T04:09:46;13.93;;;7.20;;
76852;SDS011;65825;52.232;10.566;2022-12-11T04:12:11;14.10;;;7.35;;
76852;SDS011;65825;52.232;10.566;2022-12-11T04:14:37;16.60;;;7.03;;
76852;SDS011;65825;52.232;10.566;2022-12-11T04:17:20;16.58;;;6.75;;
76852;SDS011;65825;52.232;10.566;2022-12-11T04:20:04;16.88;;;7.50;;
76852;SDS011;65825;52.232;10.566;2022-12-11T04:22:48;13.02;;;6.65;;
76852;SDS011;65825;52.232;10.566;2022-12-11T04:25:32;13.68;;;6.53;;
76852;SDS011;65825;52.232;10.566;2022-12-11T04:27:57;14.40;;;6.70;;
76852;SDS011;65825;52.232;10.566;2022-12-11T04:30:23;14.23;;;6.77;;
76852;SDS011;65825;52.232;10.566;2022-12-11T04:32:49;14.35;;;6.72;;
76852;SDS011;65825;52.232;10.566;2022-12-11T04:35:14;12.05;;;6.15;;
76852;SDS011;65825;52.232;10.566;2022-12-11T04:37:39;12.67;;;5.93;;
76852;SDS011;65825;52.232;10.566;2022-12-11T04:40:05;16.30;;;7.00;;
76852;SDS011;65825;52.232;10.566;2022-12-11T04:42:31;13.65;;;6.43;;
76852;SDS011;65825;52.232;10.566;2022-12-11T04:44:56;15.57;;;6.63;;
76852;SDS011;65825;52.232;10.566;2022-12-11T04:47:21;12.30;;;6.23;;
76852;SDS011;65825;52.232;10.566;2022-12-11T04:49:46;13.40;;;6.73;;
76852;SDS011;65825;52.232;10.566;2022-12-11T04:52:12;15.33;;;6.63;;
76852;SDS011;65825;52.232;10.566;2022-12-11T04:54:37;13.97;;;6.53;;
76852;SDS011;65825;52.232;10.566;2022-12-11T04:57:02;13.27;;;6.70;;
76852;SDS011;65825;52.232;10.566;2022-12-11T04:59:27;15.47;;;6.80;;
76852;SDS011;65825;52.232;10.566;2022-12-11T05:01:52;13.07;;;6.87;;
76852;SDS011;65825;52.232;10.566;2022-12-11T05:04:17;13.73;;;6.57;;
76852;SDS011;65825;52.232;10.566;2022-12-11T05:06:43;15.37;;;6.90;;
76852;SDS011;65825;52.232;10.566;2022-12-11T05:09:11;15.20;;;7.07;;
76852;SDS011;65825;52.232;10.566;2022-12-11T05:11:37;14.38;;;7.32;;
76852;SDS011;65825;52.232;10.566;2022-12-11T05:14:02;13.02;;;6.65;;
76852;SDS011;65825;52.232;10.566;2022-12-11T05:16:27;15.52;;;7.20;;
76852;SDS011;65825;52.232;10.566;2022-12-11T05:18:53;16.33;;;6.93;;
76852;SDS011;65825;52.232;10.566;2022-12-11T05:21:18;15.25;;;7.32;;
76852;SDS011;65825;52.232;10.566;2022-12-11T05:23:43;16.57;;;6.67;;
76852;SDS011;65825;52.232;10.566;2022-12-11T05:26:13;14.83;;;7.17;;
76852;SDS011;65825;52.232;10.566;2022-12-11T05:28:38;16.10;;;6.57;;
76852;SDS011;65825;52.232;10.566;2022-12-11T05:31:05;13.63;;;6.32;;
76852;SDS011;65825;52.232;10.566;2022-12-11T05:33:30;17.95;;;7.85;;
76852;SDS011;65825;52.232;10.566;2022-12-11T05:35:56;18.30;;;8.05;;
76852;SDS011;65825;52.232;10.566;2022-12-11T05:38:21;18.40;;;7.53;;
76852;SDS011;65825;52.232;10.566;2022-12-11T05:40:56;17.30;;;8.43;;
76852;SDS011;65825;52.232;10.566;2022-12-11T05:43:22;15.38;;;7.90;;
76852;SDS011;65825;52.232;10.566;2022-12-11T05:45:47;15.23;;;6.97;;
76852;SDS011;65825;52.232;10.566;2022-12-11T05:48:13;15.67;;;7.27;;
76852;SDS011;65825;52.232;10.566;2022-12-11T05:50:38;17.87;;;7.23;;
76852;SDS011;65825;52.232;10.566;2022-12-11T05:53:03;17.33;;;7.43;;
76852;SDS011;65825;52.232;10.566;2022-12-11T05:55:29;14.60;;;7.18;;
76852;SDS011;65825;52.232;10.566;2022-12-11T05:57:54;17.23;;;7.43;;
76852;SDS011;65825;52.232;10.566;2022-12-11T06:00:19;13.80;;;6.77;;
76852;SDS011;65825;52.232;10.566;2022-12-11T06:02:44;13.73;;;6.77;;
76852;SDS011;65825;52.232;10.566;2022-12-11T06:05:09;16.27;;;7.07;;
76852;SDS011;65825;52.232;10.566;2022-12-11T06:07:35;15.40;;;7.00;;
76852;SDS011;65825;52.232;10.566;2022-12-11T06:10:00;16.17;;;7.00;;
76852;SDS011;65825;52.232;10.566;2022-12-11T06:12:25;14.20;;;7.17;;
76852;SDS011;65825;52.232;10.566;2022-12-11T06:14:51;15.30;;;6.90;;
76852;SDS011;65825;52.232;10.566;2022-12-11T06:17:16;16.73;;;7.43;;
76852;SDS011;65825;52.232;10.566;2022-12-11T06:19:41;13.60;;;6.67;;
76852;SDS011;65825;52.232;10.566;2022-12-11T06:22:06;15.23;;;7.07;;
76852;SDS011;65825;52.232;10.566;2022-12-11T06:24:31;17.00;;;7.77;;
76852;SDS011;65825;52.232;10.566;2022-12-11T06:26:57;14.25;;;6.88;;
76852;SDS011;65825;52.232;10.566;2022-12-11T06:29:22;16.07;;;7.20;;
76852;SDS011;65825;52.232;10.566;2022-12-11T06:31:47;18.07;;;7.57;;
76852;SDS011;65825;52.232;10.566;2022-12-11T06:34:12;19.20;;;7.83;;
76852;SDS011;65825;52.232;10.566;2022-12-11T06:36:38;18.70;;;7.70;;
76852;SDS011;65825;52.232;10.566;2022-12-11T06:39:03;17.35;;;7.47;;
76852;SDS011;65825;52.232;10.566;2022-12-11T06:41:28;16.77;;;7.77;;
76852;SDS011;65825;52.232;10.566;2022-12-11T06:43:54;18.57;;;7.97;;
76852;SDS011;65825;52.232;10.566;2022-12-11T06:46:19;16.30;;;6.93;;
76852;SDS011;65825;52.232;10.566;2022-12-11T06:48:45;17.55;;;7.35;;
76852;SDS011;65825;52.232;10.566;2022-12-11T06:51:11;17.83;;;7.57;;
76852;SDS011;65825;52.232;10.566;2022-12-11T06:53:37;16.30;;;7.35;;
76852;SDS011;65825;52.232;10.566;2022-12-11T06:56:09;16.52;;;6.82;;
76852;SDS011;65825;52.232;10.566;2022-12-11T06:58:35;16.98;;;7.80;;
76852;SDS011;65825;52.232;10.566;2022-12-11T07:01:01;17.48;;;7.03;;
76852;SDS011;65825;52.232;10.566;2022-12-11T07:03:27;16.50;;;7.10;;
76852;SDS011;65825;52.232;10.566;2022-12-11T07:05:52;18.30;;;7.18;;
76852;SDS011;65825;52.232;10.566;2022-12-11T07:08:17;17.00;;;6.97;;
76852;SDS011;65825;52.232;10.566;2022-12-11T07:10:43;16.43;;;7.33;;
76852;SDS011;65825;52.232;10.566;2022-12-11T07:13:08;18.57;;;7.90;;
76852;SDS011;65825;52.232;10.566;2022-12-11T07:15:33;16.95;;;6.28;;
76852;SDS011;65825;52.232;10.566;2022-12-11T07:17:58;21.02;;;7.50;;
76852;SDS011;65825;52.232;10.566;2022-12-11T07:20:24;19.13;;;7.60;;
76852;SDS011;65825;52.232;10.566;2022-12-11T07:22:49;20.13;;;7.23;;
76852;SDS011;65825;52.232;10.566;2022-12-11T07:25:14;15.37;;;6.30;;
76852;SDS011;65825;52.232;10.566;2022-12-11T07:27:40;20.47;;;7.93;;
76852;SDS011;65825;52.232;10.566;2022-12-11T07:30:05;18.30;;;7.07;;
76852;SDS011;65825;52.232;10.566;2022-12-11T07:32:31;16.52;;;6.78;;
76852;SDS011;65825;52.232;10.566;2022-12-11T07:34:56;18.40;;;7.23;;
76852;SDS011;65825;52.232;10.566;2022-12-11T07:37:21;17.70;;;6.53;;
76852;SDS011;65825;52.232;10.566;2022-12-11T07:39:46;15.37;;;6.30;;
76852;SDS011;65825;52.232;10.566;2022-12-11T07:42:13;15.32;;;6.65;;
76852;SDS011;65825;52.232;10.566;2022-12-11T07:44:38;16.67;;;7.53;;
76852;SDS011;65825;52.232;10.566;2022-12-11T07:47:03;17.30;;;6.87;;
76852;SDS011;65825;52.232;10.566;2022-12-11T07:49:28;15.77;;;6.40;;
76852;SDS011;65825;52.232;10.566;2022-12-11T07:51:53;17.07;;;6.57;;
76852;SDS011;65825;52.232;10.566;2022-12-11T07:54:18;15.03;;;6.27;;
76852;SDS011;65825;52.232;10.566;2022-12-11T07:56:45;16.67;;;6.35;;
76852;SDS011;65825;52.232;10.566;2022-12-11T07:59:10;15.68;;;6.22;;
76852;SDS011;65825;52.232;10.566;2022-12-11T08:01:36;15.52;;;7.30;;
76852;SDS011;65825;52.232;10.566;2022-12-11T08:04:02;16.80;;;6.57;;
76852;SDS011;65825;52.232;10.566;2022-12-11T08:06:29;15.48;;;6.63;;
76852;SDS011;65825;52.232;10.566;2022-12-11T08:08:55;17.98;;;6.68;;
76852;SDS011;65825;52.232;10.566;2022-12-11T08:11:20;16.75;;;6.88;;
76852;SDS011;65825;52.232;10.566;2022-12-11T08:13:46;15.80;;;6.63;;
76852;SDS011;65825;52.232;10.566;2022-12-11T08:16:12;16.77;;;7.03;;
76852;SDS011;65825;52.232;10.566;2022-12-11T08:18:38;16.63;;;7.32;;
76852;SDS011;65825;52.232;10.566;2022-12-11T08:21:04;18.25;;;6.63;;
76852;SDS011;65825;52.232;10.566;2022-12-11T08:23:30;16.02;;;6.68;;
76852;SDS011;65825;52.232;10.566;2022-12-11T08:25:55;15.40;;;6.90;;
76852;SDS011;65825;52.232;10.566;2022-12-11T08:28:20;16.70;;;6.13;;
76852;SDS011;65825;52.232;10.566;2022-12-11T08:30:45;15.13;;;5.83;;
76852;SDS011;65825;52.232;10.566;2022-12-11T08:33:10;16.53;;;6.00;;
76852;SDS011;65825;52.232;10.566;2022-12-11T08:35:38;12.63;;;6.00;;
76852;SDS011;65825;52.232;10.566;2022-12-11T08:38:04;14.70;;;6.30;;
76852;SDS011;65825;52.232;10.566;2022-12-11T08:40:29;15.60;;;6.63;;
76852;SDS011;65825;52.232;10.566;2022-12-11T08:42:54;15.67;;;6.27;;
76852;SDS011;65825;52.232;10.566;2022-12-11T08:45:19;14.10;;;6.70;;
76852;SDS011;65825;52.232;10.566;2022-12-11T08:47:44;15.53;;;6.67;;
76852;SDS011;65825;52.232;10.566;2022-12-11T08:50:10;19.47;;;7.60;;
76852;SDS011;65825;52.232;10.566;2022-12-11T08:52:35;14.80;;;6.43;;
76852;SDS011;65825;52.232;10.566;2022-12-11T08:55:00;15.70;;;7.30;;
76852;SDS011;65825;52.232;10.566;2022-12-11T08:57:26;14.83;;;7.07;;
76852;SDS011;65825;52.232;10.566;2022-12-11T08:59:52;16.63;;;8.40;;
76852;SDS011;65825;52.232;10.566;2022-12-11T09:02:17;32.13;;;12.80;;
76852;SDS011;65825;52.232;10.566;2022-12-11T09:04:42;73.97;;;26.30;;
76852;SDS011;65825;52.232;10.566;2022-12-11T09:07:07;24.97;;;11.20;;
76852;SDS011;65825;52.232;10.566;2022-12-11T09:09:32;15.30;;;6.80;;
76852;SDS011;65825;52.232;10.566;2022-12-11T09:11:57;12.67;;;6.13;;
76852;SDS011;65825;52.232;10.566;2022-12-11T09:14:25;13.75;;;6.10;;
76852;SDS011;65825;52.232;10.566;2022-12-11T09:16:50;14.07;;;6.07;;
76852;SDS011;65825;52.232;10.566;2022-12-11T09:19:15;16.00;;;6.37;;
76852;SDS011;65825;52.232;10.566;2022-12-11T09:21:42;13.98;;;6.10;;
76852;SDS011;65825;52.232;10.566;2022-12-11T09:24:07;12.68;;;6.00;;
76852;SDS011;65825;52.232;10.566;2022-12-11T09:26:33;13.23;;;5.35;;
76852;SDS011;65825;52.232;10.566;2022-12-11T09:28:58;14.13;;;5.70;;
76852;SDS011;65825;52.232;10.566;2022-12-11T09:31:28;10.80;;;5.22;;
76852;SDS011;65825;52.232;10.566;2022-12-11T09:33:54;13.13;;;6.38;;
76852;SDS011;65825;52.232;10.566;2022-12-11T09:36:20;11.13;;;5.05;;
76852;SDS011;65825;52.232;10.566;2022-12-11T09:38:45;11.67;;;5.13;;
76852;SDS011;65825;52.232;10.566;2022-12-11T09:41:22;10.93;;;5.40;;
76852;SDS011;65825;52.232;10.566;2022-12-11T09:46:34;13.57;;;5.45;;
76852;SDS011;65825;52.232;10.566;2022-12-11T09:49:00;12.75;;;5.65;;
76852;SDS011;65825;52.232;10.566;2022-12-11T09:51:28;11.75;;;5.13;;
76852;SDS011;65825;52.232;10.566;2022-12-11T09:53:55;11.60;;;5.28;;
76852;SDS011;65825;52.232;10.566;2022-12-11T09:56:24;10.32;;;4.75;;
76852;SDS011;65825;52.232;10.566;2022-12-11T10:01:33;10.35;;;5.18;;
76852;SDS011;65825;52.232;10.566;2022-12-11T10:06:36;12.00;;;6.18;;
76852;SDS011;65825;52.232;10.566;2022-12-11T10:16:37;8.25;;;5.15;;
76852;SDS011;65825;52.232;10.566;2022-12-11T10:19:03;9.35;;;6.00;;
76852;SDS011;65825;52.232;10.566;2022-12-11T10:21:29;9.02;;;5.30;;
76852;SDS011;65825;52.232;10.566;2022-12-11T10:23:58;11.10;;;5.97;;
76852;SDS011;65825;52.232;10.566;2022-12-11T10:26:26;8.68;;;5.53;;
76852;SDS011;65825;52.232;10.566;2022-12-11T10:28:51;8.60;;;5.05;;
76852;SDS011;65825;52.232;10.566;2022-12-11T10:31:17;8.37;;;5.67;;
76852;SDS011;65825;52.232;10.566;2022-12-11T10:36:08;8.67;;;5.13;;
76852;SDS011;65825;52.232;10.566;2022-12-11T10:38:38;9.82;;;5.82;;
76852;SDS011;65825;52.232;10.566;2022-12-11T10:41:05;9.05;;;5.55;;
76852;SDS011;65825;52.232;10.566;2022-12-11T10:43:38;7.88;;;5.60;;
76852;SDS011;65825;52.232;10.566;2022-12-11T10:46:04;8.75;;;5.57;;
76852;SDS011;65825;52.232;10.566;2022-12-11T10:51:04;8.98;;;5.53;;
76852;SDS011;65825;52.232;10.566;2022-12-11T10:53:31;9.15;;;6.00;;
76852;SDS011;65825;52.232;10.566;2022-12-11T10:55:57;9.13;;;5.43;;
76852;SDS011;65825;52.232;10.566;2022-12-11T10:58:29;8.38;;;5.00;;
76852;SDS011;65825;52.232;10.566;2022-12-11T11:03:26;7.93;;;4.97;;
76852;SDS011;65825;52.232;10.566;2022-12-11T11:08:40;6.88;;;4.30;;
76852;SDS011;65825;52.232;10.566;2022-12-11T11:11:05;9.25;;;5.30;;
76852;SDS011;65825;52.232;10.566;2022-12-11T11:13:32;8.07;;;5.45;;
76852;SDS011;65825;52.232;10.566;2022-12-11T11:16:07;8.80;;;5.57;;
76852;SDS011;65825;52.232;10.566;2022-12-11T11:18:35;7.85;;;5.00;;
76852;SDS011;65825;52.232;10.566;2022-12-11T11:21:01;7.93;;;5.20;;
76852;SDS011;65825;52.232;10.566;2022-12-11T11:28:18;8.95;;;6.07;;
76852;SDS011;65825;52.232;10.566;2022-12-11T11:30:53;9.55;;;6.55;;
76852;SDS011;65825;52.232;10.566;2022-12-11T11:33:20;10.90;;;6.82;;
76852;SDS011;65825;52.232;10.566;2022-12-11T11:35:53;10.80;;;6.40;;
76852;SDS011;65825;52.232;10.566;2022-12-11T11:38:19;10.23;;;6.03;;
76852;SDS011;65825;52.232;10.566;2022-12-11T11:53:40;11.23;;;5.70;;
76852;SDS011;65825;52.232;10.566;2022-12-11T11:56:21;10.43;;;6.45;;
76852;SDS011;65825;52.232;10.566;2022-12-11T11:59:30;11.35;;;6.78;;
76852;SDS011;65825;52.232;10.566;2022-12-11T12:01:36;11.38;;;6.80;;
76852;SDS011;65825;52.232;10.566;2022-12-11T12:04:01;9.25;;;5.90;;
76852;SDS011;65825;52.232;10.566;2022-12-11T12:06:33;10.23;;;5.93;;
76852;SDS011;65825;52.232;10.566;2022-12-11T12:16:52;12.47;;;6.60;;
76852;SDS011;65825;52.232;10.566;2022-12-11T12:24:51;15.02;;;6.75;;
76852;SDS011;65825;52.232;10.566;2022-12-11T12:30:10;13.32;;;6.60;;
76852;SDS011;65825;52.232;10.566;2022-12-11T12:35:20;12.20;;;6.40;;
76852;SDS011;65825;52.232;10.566;2022-12-11T12:37:54;11.15;;;5.60;;
76852;SDS011;65825;52.232;10.566;2022-12-11T12:40:28;11.73;;;6.72;;
76852;SDS011;65825;52.232;10.566;2022-12-11T12:48:03;13.43;;;7.03;;
76852;SDS011;65825;52.232;10.566;2022-12-11T12:50:31;13.97;;;7.00;;
76852;SDS011;65825;52.232;10.566;2022-12-11T12:52:58;15.60;;;7.32;;
76852;SDS011;65825;52.232;10.566;2022-12-11T12:55:24;15.05;;;7.80;;
76852;SDS011;65825;52.232;10.566;2022-12-11T12:57:52;13.73;;;6.72;;
76852;SDS011;65825;52.232;10.566;2022-12-11T13:00:28;14.15;;;6.78;;
76852;SDS011;65825;52.232;10.566;2022-12-11T13:02:54;15.80;;;6.93;;
76852;SDS011;65825;52.232;10.566;2022-12-11T13:05:29;13.52;;;6.70;;
76852;SDS011;65825;52.232;10.566;2022-12-11T13:07:57;15.48;;;7.05;;
76852;SDS011;65825;52.232;10.566;2022-12-11T13:10:36;14.15;;;7.00;;
76852;SDS011;65825;52.232;10.566;2022-12-11T13:17:52;12.90;;;6.07;;
76852;SDS011;65825;52.232;10.566;2022-12-11T13:20:19;14.80;;;6.60;;
76852;SDS011;65825;52.232;10.566;2022-12-11T13:22:48;14.68;;;6.50;;
76852;SDS011;65825;52.232;10.566;2022-12-11T13:25:19;15.60;;;7.65;;
76852;SDS011;65825;52.232;10.566;2022-12-11T13:27:45;11.60;;;5.80;;
76852;SDS011;65825;52.232;10.566;2022-12-11T13:32:38;13.60;;;5.80;;
76852;SDS011;65825;52.232;10.566;2022-12-11T13:35:05;13.35;;;6.28;;
76852;SDS011;65825;52.232;10.566;2022-12-11T13:37:38;13.25;;;6.30;;
76852;SDS011;65825;52.232;10.566;2022-12-11T13:40:06;9.77;;;5.15;;
76852;SDS011;65825;52.232;10.566;2022-12-11T13:42:51;11.80;;;5.05;;
76852;SDS011;65825;52.232;10.566;2022-12-11T13:45:26;8.65;;;4.93;;
76852;SDS011;65825;52.232;10.566;2022-12-11T13:47:53;10.50;;;5.28;;
76852;SDS011;65825;52.232;10.566;2022-12-11T13:50:27;10.90;;;5.20;;
76852;SDS011;65825;52.232;10.566;2022-12-11T13:52:53;10.93;;;5.25;;
76852;SDS011;65825;52.232;10.566;2022-12-11T13:55:20;9.48;;;4.80;;
76852;SDS011;65825;52.232;10.566;2022-12-11T13:57:47;8.65;;;4.97;;
76852;SDS011;65825;52.232;10.566;2022-12-11T14:00:18;10.77;;;5.30;;
76852;SDS011;65825;52.232;10.566;2022-12-11T14:02:44;11.52;;;5.32;;
76852;SDS011;65825;52.232;10.566;2022-12-11T14:05:10;10.13;;;4.90;;
76852;SDS011;65825;52.232;10.566;2022-12-11T14:07:57;11.43;;;5.75;;
76852;SDS011;65825;52.232;10.566;2022-12-11T14:10:22;9.05;;;4.82;;
76852;SDS011;65825;52.232;10.566;2022-12-11T14:15:20;10.02;;;4.88;;
76852;SDS011;65825;52.232;10.566;2022-12-11T14:17:45;10.07;;;5.10;;
76852;SDS011;65825;52.232;10.566;2022-12-11T14:20:18;11.70;;;5.17;;
76852;SDS011;65825;52.232;10.566;2022-12-11T14:22:43;8.77;;;4.22;;
76852;SDS011;65825;52.232;10.566;2022-12-11T14:25:19;8.07;;;4.77;;
76852;SDS011;65825;52.232;10.566;2022-12-11T14:27:46;8.88;;;5.03;;
76852;SDS011;65825;52.232;10.566;2022-12-11T14:30:12;9.38;;;4.68;;
76852;SDS011;65825;52.232;10.566;2022-12-11T14:32:40;8.77;;;4.55;;
76852;SDS011;65825;52.232;10.566;2022-12-11T14:35:07;14.50;;;5.07;;
76852;SDS011;65825;52.232;10.566;2022-12-11T14:37:41;10.65;;;5.05;;
76852;SDS011;65825;52.232;10.566;2022-12-11T14:40:07;10.53;;;5.20;;
76852;SDS011;65825;52.232;10.566;2022-12-11T14:42:38;10.60;;;5.82;;
76852;SDS011;65825;52.232;10.566;2022-12-11T14:45:17;8.95;;;5.18;;
76852;SDS011;65825;52.232;10.566;2022-12-11T14:50:21;9.60;;;5.47;;
76852;SDS011;65825;52.232;10.566;2022-12-11T14:52:50;10.68;;;5.28;;
76852;SDS011;65825;52.232;10.566;2022-12-11T14:57:42;9.60;;;4.73;;
76852;SDS011;65825;52.232;10.566;2022-12-11T15:00:19;9.85;;;5.25;;
76852;SDS011;65825;52.232;10.566;2022-12-11T15:02:44;9.32;;;5.13;;
76852;SDS011;65825;52.232;10.566;2022-12-11T15:05:20;13.43;;;6.03;;
76852;SDS011;65825;52.232;10.566;2022-12-11T15:11:00;9.05;;;5.10;;
76852;SDS011;65825;52.232;10.566;2022-12-11T15:13:22;9.63;;;5.25;;
76852;SDS011;65825;52.232;10.566;2022-12-11T15:15:48;9.63;;;5.05;;
76852;SDS011;65825;52.232;10.566;2022-12-11T15:18:32;13.07;;;4.72;;
76852;SDS011;65825;52.232;10.566;2022-12-11T15:21:04;10.13;;;4.85;;
76852;SDS011;65825;52.232;10.566;2022-12-11T15:23:55;10.07;;;5.28;;
76852;SDS011;65825;52.232;10.566;2022-12-11T15:26:19;10.35;;;5.38;;
76852;SDS011;65825;52.232;10.566;2022-12-11T15:28:45;9.88;;;5.22;;
76852;SDS011;65825;52.232;10.566;2022-12-11T15:34:19;10.00;;;5.20;;
76852;SDS011;65825;52.232;10.566;2022-12-11T15:36:45;11.77;;;4.63;;
76852;SDS011;65825;52.232;10.566;2022-12-11T15:39:10;12.77;;;5.73;;
76852;SDS011;65825;52.232;10.566;2022-12-11T15:41:35;11.03;;;4.97;;
76852;SDS011;65825;52.232;10.566;2022-12-11T15:44:01;9.80;;;5.10;;
76852;SDS011;65825;52.232;10.566;2022-12-11T15:46:27;14.20;;;7.05;;
76852;SDS011;65825;52.232;10.566;2022-12-11T15:48:52;11.57;;;6.23;;
76852;SDS011;65825;52.232;10.566;2022-12-11T15:51:19;13.18;;;6.68;;
76852;SDS011;65825;52.232;10.566;2022-12-11T15:53:44;11.33;;;5.90;;
76852;SDS011;65825;52.232;10.566;2022-12-11T15:56:15;12.43;;;6.00;;
76852;SDS011;65825;52.232;10.566;2022-12-11T15:58:44;13.60;;;6.47;;
76852;SDS011;65825;52.232;10.566;2022-12-11T16:01:10;13.48;;;7.15;;
76852;SDS011;65825;52.232;10.566;2022-12-11T16:03:35;14.50;;;7.13;;
76852;SDS011;65825;52.232;10.566;2022-12-11T16:06:00;13.93;;;6.93;;